sensor_id;sensor_type;location;lat;lon;timestamp;P1;durP1;ratioP1;P2;durP2;ratioP2
6910;SDS011;3495;52.346;9.832;2022-10-31T00:01:33;13.22;;;5.75;;
6910;SDS011;3495;52.346;9.832;2022-10-31T00:04:01;13.90;;;5.35;;
6910;SDS011;3495;52.346;9.832;2022-10-31T00:06:29;19.40;;;6.90;;
6910;SDS011;3495;52.346;9.832;2022-10-31T00:08:59;15.03;;;5.72;;
6910;SDS011;3495;52.346;9.832;2022-10-31T00:11:26;14.53;;;5.62;;
6910;SDS011;3495;52.346;9.832;2022-10-31T00:13:54;15.68;;;6.08;;
6910;SDS011;3495;52.346;9.832;2022-10-31T00:16:23;10.55;;;4.90;;
6910;SDS011;3495;52.346;9.832;2022-10-31T00:18:51;10.70;;;5.25;;
6910;SDS011;3495;52.346;9.832;2022-10-31T00:21:19;14.13;;;6.17;;
6910;SDS011;3495;52.346;9.832;2022-10-31T00:23:47;13.05;;;5.37;;
6910;SDS011;3495;52.346;9.832;2022-10-31T00:26:16;13.20;;;5.92;;
6910;SDS011;3495;52.346;9.832;2022-10-31T00:28:44;10.53;;;5.47;;
6910;SDS011;3495;52.346;9.832;2022-10-31T00:31:12;12.93;;;5.92;;
6910;SDS011;3495;52.346;9.832;2022-10-31T00:33:41;12.55;;;5.92;;
6910;SDS011;3495;52.346;9.832;2022-10-31T00:36:11;16.50;;;7.62;;
6910;SDS011;3495;52.346;9.832;2022-10-31T00:38:38;15.85;;;7.10;;
6910;SDS011;3495;52.346;9.832;2022-10-31T00:41:07;16.45;;;7.08;;
6910;SDS011;3495;52.346;9.832;2022-10-31T00:43:35;15.70;;;7.60;;
6910;SDS011;3495;52.346;9.832;2022-10-31T00:46:04;22.65;;;8.75;;
6910;SDS011;3495;52.346;9.832;2022-10-31T00:48:32;17.35;;;7.10;;
6910;SDS011;3495;52.346;9.832;2022-10-31T00:51:00;17.27;;;8.30;;
6910;SDS011;3495;52.346;9.832;2022-10-31T00:56:05;17.70;;;9.95;;
6910;SDS011;3495;52.346;9.832;2022-10-31T00:58:33;21.50;;;9.85;;
6910;SDS011;3495;52.346;9.832;2022-10-31T01:01:02;17.50;;;9.23;;
6910;SDS011;3495;52.346;9.832;2022-10-31T01:03:30;20.45;;;9.28;;
6910;SDS011;3495;52.346;9.832;2022-10-31T01:05:59;19.85;;;9.45;;
6910;SDS011;3495;52.346;9.832;2022-10-31T01:08:27;16.42;;;9.63;;
6910;SDS011;3495;52.346;9.832;2022-10-31T01:10:59;22.85;;;11.03;;
6910;SDS011;3495;52.346;9.832;2022-10-31T01:13:28;20.68;;;10.93;;
6910;SDS011;3495;52.346;9.832;2022-10-31T01:15:56;23.85;;;10.60;;
6910;SDS011;3495;52.346;9.832;2022-10-31T01:18:24;22.25;;;11.08;;
6910;SDS011;3495;52.346;9.832;2022-10-31T01:20:59;20.37;;;11.20;;
6910;SDS011;3495;52.346;9.832;2022-10-31T01:23:28;21.90;;;11.97;;
6910;SDS011;3495;52.346;9.832;2022-10-31T01:26:15;23.10;;;11.85;;
6910;SDS011;3495;52.346;9.832;2022-10-31T01:28:44;21.82;;;12.70;;
6910;SDS011;3495;52.346;9.832;2022-10-31T01:31:12;25.60;;;13.62;;
6910;SDS011;3495;52.346;9.832;2022-10-31T01:33:40;22.27;;;13.20;;
6910;SDS011;3495;52.346;9.832;2022-10-31T01:36:13;26.40;;;13.45;;
6910;SDS011;3495;52.346;9.832;2022-10-31T01:38:41;27.50;;;13.75;;
6910;SDS011;3495;52.346;9.832;2022-10-31T01:41:10;30.48;;;14.33;;
6910;SDS011;3495;52.346;9.832;2022-10-31T01:46:33;25.08;;;14.03;;
6910;SDS011;3495;52.346;9.832;2022-10-31T01:49:01;27.58;;;15.13;;
6910;SDS011;3495;52.346;9.832;2022-10-31T01:51:31;29.12;;;15.00;;
6910;SDS011;3495;52.346;9.832;2022-10-31T01:56:34;29.05;;;15.75;;
6910;SDS011;3495;52.346;9.832;2022-10-31T01:59:02;28.32;;;16.32;;
6910;SDS011;3495;52.346;9.832;2022-10-31T02:01:30;30.30;;;15.58;;
6910;SDS011;3495;52.346;9.832;2022-10-31T02:03:59;29.98;;;16.90;;
6910;SDS011;3495;52.346;9.832;2022-10-31T02:06:33;33.67;;;15.83;;
6910;SDS011;3495;52.346;9.832;2022-10-31T02:11:33;29.12;;;15.95;;
6910;SDS011;3495;52.346;9.832;2022-10-31T02:14:01;25.32;;;15.85;;
6910;SDS011;3495;52.346;9.832;2022-10-31T02:16:29;34.75;;;17.77;;
6910;SDS011;3495;52.346;9.832;2022-10-31T02:18:57;30.37;;;16.93;;
6910;SDS011;3495;52.346;9.832;2022-10-31T02:21:27;30.12;;;17.57;;
6910;SDS011;3495;52.346;9.832;2022-10-31T02:24:00;35.98;;;18.30;;
6910;SDS011;3495;52.346;9.832;2022-10-31T02:26:40;30.92;;;16.80;;
6910;SDS011;3495;52.346;9.832;2022-10-31T02:31:54;31.12;;;17.57;;
6910;SDS011;3495;52.346;9.832;2022-10-31T02:34:22;33.38;;;17.98;;
6910;SDS011;3495;52.346;9.832;2022-10-31T02:36:52;37.13;;;18.70;;
6910;SDS011;3495;52.346;9.832;2022-10-31T02:41:59;35.95;;;21.75;;
6910;SDS011;3495;52.346;9.832;2022-10-31T02:44:27;34.20;;;19.17;;
6910;SDS011;3495;52.346;9.832;2022-10-31T02:46:55;38.48;;;20.65;;
6910;SDS011;3495;52.346;9.832;2022-10-31T02:49:24;33.95;;;18.32;;
6910;SDS011;3495;52.346;9.832;2022-10-31T02:51:51;35.10;;;17.55;;
6910;SDS011;3495;52.346;9.832;2022-10-31T02:56:56;36.30;;;21.83;;
6910;SDS011;3495;52.346;9.832;2022-10-31T02:59:24;36.10;;;20.10;;
6910;SDS011;3495;52.346;9.832;2022-10-31T03:02:02;35.05;;;20.17;;
6910;SDS011;3495;52.346;9.832;2022-10-31T03:04:33;35.92;;;19.17;;
6910;SDS011;3495;52.346;9.832;2022-10-31T03:07:03;35.90;;;19.75;;
6910;SDS011;3495;52.346;9.832;2022-10-31T03:09:32;35.90;;;19.85;;
6910;SDS011;3495;52.346;9.832;2022-10-31T03:12:00;37.73;;;20.52;;
6910;SDS011;3495;52.346;9.832;2022-10-31T03:14:29;32.90;;;18.90;;
6910;SDS011;3495;52.346;9.832;2022-10-31T03:16:56;29.55;;;17.67;;
6910;SDS011;3495;52.346;9.832;2022-10-31T03:19:25;31.93;;;16.87;;
6910;SDS011;3495;52.346;9.832;2022-10-31T03:21:53;30.08;;;17.80;;
6910;SDS011;3495;52.346;9.832;2022-10-31T03:24:21;29.63;;;16.75;;
6910;SDS011;3495;52.346;9.832;2022-10-31T03:26:51;30.68;;;16.25;;
6910;SDS011;3495;52.346;9.832;2022-10-31T03:29:19;31.23;;;17.67;;
6910;SDS011;3495;52.346;9.832;2022-10-31T03:31:47;30.12;;;19.57;;
6910;SDS011;3495;52.346;9.832;2022-10-31T03:34:15;35.40;;;17.85;;
6910;SDS011;3495;52.346;9.832;2022-10-31T03:36:43;35.58;;;20.52;;
6910;SDS011;3495;52.346;9.832;2022-10-31T03:39:12;38.40;;;21.07;;
6910;SDS011;3495;52.346;9.832;2022-10-31T03:41:41;33.95;;;19.85;;
6910;SDS011;3495;52.346;9.832;2022-10-31T03:44:10;35.80;;;20.12;;
6910;SDS011;3495;52.346;9.832;2022-10-31T03:46:37;34.50;;;19.17;;
6910;SDS011;3495;52.346;9.832;2022-10-31T03:49:06;38.85;;;19.65;;
6910;SDS011;3495;52.346;9.832;2022-10-31T03:51:35;35.92;;;20.15;;
6910;SDS011;3495;52.346;9.832;2022-10-31T03:56:40;33.95;;;19.25;;
6910;SDS011;3495;52.346;9.832;2022-10-31T03:59:08;41.45;;;21.20;;
6910;SDS011;3495;52.346;9.832;2022-10-31T04:01:38;35.38;;;18.40;;
6910;SDS011;3495;52.346;9.832;2022-10-31T04:04:04;34.23;;;17.80;;
6910;SDS011;3495;52.346;9.832;2022-10-31T04:06:33;32.83;;;18.75;;
6910;SDS011;3495;52.346;9.832;2022-10-31T04:09:02;31.93;;;17.65;;
6910;SDS011;3495;52.346;9.832;2022-10-31T04:11:31;33.58;;;17.82;;
6910;SDS011;3495;52.346;9.832;2022-10-31T04:13:58;38.92;;;19.62;;
6910;SDS011;3495;52.346;9.832;2022-10-31T04:16:26;35.43;;;20.10;;
6910;SDS011;3495;52.346;9.832;2022-10-31T04:18:55;36.35;;;19.87;;
6910;SDS011;3495;52.346;9.832;2022-10-31T04:21:27;31.85;;;18.55;;
6910;SDS011;3495;52.346;9.832;2022-10-31T04:23:56;30.62;;;17.62;;
6910;SDS011;3495;52.346;9.832;2022-10-31T04:26:24;32.55;;;19.65;;
6910;SDS011;3495;52.346;9.832;2022-10-31T04:28:53;33.83;;;18.87;;
6910;SDS011;3495;52.346;9.832;2022-10-31T04:31:21;37.98;;;19.25;;
6910;SDS011;3495;52.346;9.832;2022-10-31T04:33:49;37.60;;;20.00;;
6910;SDS011;3495;52.346;9.832;2022-10-31T04:36:18;31.65;;;18.77;;
6910;SDS011;3495;52.346;9.832;2022-10-31T04:38:46;34.83;;;19.37;;
6910;SDS011;3495;52.346;9.832;2022-10-31T04:41:14;31.65;;;18.55;;
6910;SDS011;3495;52.346;9.832;2022-10-31T04:43:42;30.08;;;16.52;;
6910;SDS011;3495;52.346;9.832;2022-10-31T04:46:11;32.50;;;16.65;;
6910;SDS011;3495;52.346;9.832;2022-10-31T04:48:39;29.92;;;16.62;;
6910;SDS011;3495;52.346;9.832;2022-10-31T04:51:07;29.12;;;16.82;;
6910;SDS011;3495;52.346;9.832;2022-10-31T04:53:36;31.05;;;16.42;;
6910;SDS011;3495;52.346;9.832;2022-10-31T04:56:05;27.87;;;16.20;;
6910;SDS011;3495;52.346;9.832;2022-10-31T04:58:33;26.10;;;15.65;;
6910;SDS011;3495;52.346;9.832;2022-10-31T05:01:02;33.18;;;19.20;;
6910;SDS011;3495;52.346;9.832;2022-10-31T05:03:31;34.63;;;18.32;;
6910;SDS011;3495;52.346;9.832;2022-10-31T05:05:59;35.90;;;19.65;;
6910;SDS011;3495;52.346;9.832;2022-10-31T05:08:27;27.73;;;17.05;;
6910;SDS011;3495;52.346;9.832;2022-10-31T05:10:56;34.75;;;17.67;;
6910;SDS011;3495;52.346;9.832;2022-10-31T05:13:24;34.05;;;18.02;;
6910;SDS011;3495;52.346;9.832;2022-10-31T05:15:52;31.95;;;17.57;;
6910;SDS011;3495;52.346;9.832;2022-10-31T05:18:21;30.50;;;17.65;;
6910;SDS011;3495;52.346;9.832;2022-10-31T05:20:49;32.95;;;18.05;;
6910;SDS011;3495;52.346;9.832;2022-10-31T05:23:18;31.77;;;19.15;;
6910;SDS011;3495;52.346;9.832;2022-10-31T05:25:46;26.73;;;16.48;;
6910;SDS011;3495;52.346;9.832;2022-10-31T05:30:50;32.98;;;19.95;;
6910;SDS011;3495;52.346;9.832;2022-10-31T05:33:18;33.33;;;18.10;;
6910;SDS011;3495;52.346;9.832;2022-10-31T05:35:47;31.87;;;19.02;;
6910;SDS011;3495;52.346;9.832;2022-10-31T05:38:15;34.98;;;18.07;;
6910;SDS011;3495;52.346;9.832;2022-10-31T05:40:43;33.67;;;17.75;;
6910;SDS011;3495;52.346;9.832;2022-10-31T05:43:12;32.17;;;18.25;;
6910;SDS011;3495;52.346;9.832;2022-10-31T05:45:40;29.92;;;17.07;;
6910;SDS011;3495;52.346;9.832;2022-10-31T05:48:08;36.98;;;18.98;;
6910;SDS011;3495;52.346;9.832;2022-10-31T05:50:37;30.10;;;16.95;;
6910;SDS011;3495;52.346;9.832;2022-10-31T05:53:05;34.60;;;18.57;;
6910;SDS011;3495;52.346;9.832;2022-10-31T05:58:09;34.85;;;21.60;;
6910;SDS011;3495;52.346;9.832;2022-10-31T06:00:37;33.70;;;17.23;;
6910;SDS011;3495;52.346;9.832;2022-10-31T06:03:06;30.65;;;17.15;;
6910;SDS011;3495;52.346;9.832;2022-10-31T06:05:34;27.37;;;16.82;;
6910;SDS011;3495;52.346;9.832;2022-10-31T06:08:02;29.57;;;16.85;;
6910;SDS011;3495;52.346;9.832;2022-10-31T06:10:31;33.50;;;17.50;;
6910;SDS011;3495;52.346;9.832;2022-10-31T06:12:59;28.85;;;15.95;;
6910;SDS011;3495;52.346;9.832;2022-10-31T06:15:27;27.87;;;17.07;;
6910;SDS011;3495;52.346;9.832;2022-10-31T06:17:59;33.58;;;16.50;;
6910;SDS011;3495;52.346;9.832;2022-10-31T06:20:27;32.83;;;17.70;;
6910;SDS011;3495;52.346;9.832;2022-10-31T06:22:56;25.77;;;16.25;;
6910;SDS011;3495;52.346;9.832;2022-10-31T06:25:24;33.60;;;17.52;;
6910;SDS011;3495;52.346;9.832;2022-10-31T06:27:52;27.05;;;15.13;;
6910;SDS011;3495;52.346;9.832;2022-10-31T06:30:21;33.92;;;16.95;;
6910;SDS011;3495;52.346;9.832;2022-10-31T06:32:49;30.25;;;15.80;;
6910;SDS011;3495;52.346;9.832;2022-10-31T06:35:18;24.35;;;15.38;;
6910;SDS011;3495;52.346;9.832;2022-10-31T06:40:26;21.80;;;13.50;;
6910;SDS011;3495;52.346;9.832;2022-10-31T06:42:58;23.80;;;15.08;;
6910;SDS011;3495;52.346;9.832;2022-10-31T06:45:26;29.02;;;15.60;;
6910;SDS011;3495;52.346;9.832;2022-10-31T06:47:55;27.17;;;15.00;;
6910;SDS011;3495;52.346;9.832;2022-10-31T06:50:23;28.12;;;14.85;;
6910;SDS011;3495;52.346;9.832;2022-10-31T06:52:51;28.52;;;13.98;;
6910;SDS011;3495;52.346;9.832;2022-10-31T06:57:56;27.93;;;16.35;;
6910;SDS011;3495;52.346;9.832;2022-10-31T07:00:24;24.20;;;14.00;;
6910;SDS011;3495;52.346;9.832;2022-10-31T07:02:55;23.27;;;14.05;;
6910;SDS011;3495;52.346;9.832;2022-10-31T07:05:24;25.08;;;14.45;;
6910;SDS011;3495;52.346;9.832;2022-10-31T07:07:52;23.25;;;13.83;;
6910;SDS011;3495;52.346;9.832;2022-10-31T07:10:22;30.32;;;15.25;;
6910;SDS011;3495;52.346;9.832;2022-10-31T07:12:54;24.12;;;13.78;;
6910;SDS011;3495;52.346;9.832;2022-10-31T07:15:23;27.32;;;14.28;;
6910;SDS011;3495;52.346;9.832;2022-10-31T07:17:51;28.47;;;14.98;;
6910;SDS011;3495;52.346;9.832;2022-10-31T07:20:19;27.00;;;15.23;;
6910;SDS011;3495;52.346;9.832;2022-10-31T07:22:48;29.20;;;14.35;;
6910;SDS011;3495;52.346;9.832;2022-10-31T07:25:16;24.05;;;13.53;;
6910;SDS011;3495;52.346;9.832;2022-10-31T07:27:44;23.35;;;13.83;;
6910;SDS011;3495;52.346;9.832;2022-10-31T07:30:13;26.15;;;14.98;;
6910;SDS011;3495;52.346;9.832;2022-10-31T07:32:42;28.42;;;14.70;;
6910;SDS011;3495;52.346;9.832;2022-10-31T07:35:10;21.10;;;13.53;;
6910;SDS011;3495;52.346;9.832;2022-10-31T07:37:38;24.57;;;14.58;;
6910;SDS011;3495;52.346;9.832;2022-10-31T07:40:07;26.30;;;14.53;;
6910;SDS011;3495;52.346;9.832;2022-10-31T07:42:35;28.30;;;14.25;;
6910;SDS011;3495;52.346;9.832;2022-10-31T07:45:05;28.07;;;14.15;;
6910;SDS011;3495;52.346;9.832;2022-10-31T07:47:38;21.35;;;13.70;;
6910;SDS011;3495;52.346;9.832;2022-10-31T07:50:08;28.20;;;16.02;;
6910;SDS011;3495;52.346;9.832;2022-10-31T07:52:35;30.02;;;15.65;;
6910;SDS011;3495;52.346;9.832;2022-10-31T07:57:40;25.10;;;14.38;;
6910;SDS011;3495;52.346;9.832;2022-10-31T08:00:10;23.12;;;13.72;;
6910;SDS011;3495;52.346;9.832;2022-10-31T08:02:38;23.73;;;14.65;;
6910;SDS011;3495;52.346;9.832;2022-10-31T08:05:07;31.12;;;14.80;;
6910;SDS011;3495;52.346;9.832;2022-10-31T08:07:36;29.05;;;16.20;;
6910;SDS011;3495;52.346;9.832;2022-10-31T08:10:05;28.85;;;15.60;;
6910;SDS011;3495;52.346;9.832;2022-10-31T08:12:34;25.65;;;14.80;;
6910;SDS011;3495;52.346;9.832;2022-10-31T08:15:02;23.67;;;14.63;;
6910;SDS011;3495;52.346;9.832;2022-10-31T08:17:30;26.62;;;14.45;;
6910;SDS011;3495;52.346;9.832;2022-10-31T08:19:59;27.17;;;14.70;;
6910;SDS011;3495;52.346;9.832;2022-10-31T08:22:27;25.50;;;15.38;;
6910;SDS011;3495;52.346;9.832;2022-10-31T08:24:55;28.47;;;16.02;;
6910;SDS011;3495;52.346;9.832;2022-10-31T08:27:24;26.10;;;14.58;;
6910;SDS011;3495;52.346;9.832;2022-10-31T08:32:27;26.55;;;16.80;;
6910;SDS011;3495;52.346;9.832;2022-10-31T08:34:56;29.57;;;15.38;;
6910;SDS011;3495;52.346;9.832;2022-10-31T08:37:24;22.10;;;14.68;;
6910;SDS011;3495;52.346;9.832;2022-10-31T08:39:52;26.45;;;14.47;;
6910;SDS011;3495;52.346;9.832;2022-10-31T08:42:21;27.10;;;15.03;;
6910;SDS011;3495;52.346;9.832;2022-10-31T08:44:49;23.90;;;13.53;;
6910;SDS011;3495;52.346;9.832;2022-10-31T08:47:17;27.30;;;14.70;;
6910;SDS011;3495;52.346;9.832;2022-10-31T08:49:46;25.68;;;15.13;;
6910;SDS011;3495;52.346;9.832;2022-10-31T08:52:14;26.05;;;14.87;;
6910;SDS011;3495;52.346;9.832;2022-10-31T08:57:18;30.52;;;17.95;;
6910;SDS011;3495;52.346;9.832;2022-10-31T08:59:46;27.13;;;15.98;;
6910;SDS011;3495;52.346;9.832;2022-10-31T09:02:15;26.77;;;15.53;;
6910;SDS011;3495;52.346;9.832;2022-10-31T09:04:43;24.65;;;14.38;;
6910;SDS011;3495;52.346;9.832;2022-10-31T09:07:11;25.88;;;14.53;;
6910;SDS011;3495;52.346;9.832;2022-10-31T09:09:40;25.85;;;14.63;;
6910;SDS011;3495;52.346;9.832;2022-10-31T09:12:08;21.60;;;12.73;;
6910;SDS011;3495;52.346;9.832;2022-10-31T09:14:36;23.87;;;14.33;;
6910;SDS011;3495;52.346;9.832;2022-10-31T09:17:04;29.25;;;14.20;;
6910;SDS011;3495;52.346;9.832;2022-10-31T09:19:33;29.85;;;16.30;;
6910;SDS011;3495;52.346;9.832;2022-10-31T09:22:01;29.05;;;15.28;;
6910;SDS011;3495;52.346;9.832;2022-10-31T09:24:30;23.25;;;14.95;;
6910;SDS011;3495;52.346;9.832;2022-10-31T09:26:59;22.70;;;14.87;;
6910;SDS011;3495;52.346;9.832;2022-10-31T09:29:27;22.48;;;13.95;;
6910;SDS011;3495;52.346;9.832;2022-10-31T09:34:32;21.12;;;13.48;;
6910;SDS011;3495;52.346;9.832;2022-10-31T09:37:00;24.95;;;14.40;;
6910;SDS011;3495;52.346;9.832;2022-10-31T09:39:29;24.23;;;14.30;;
6910;SDS011;3495;52.346;9.832;2022-10-31T09:44:58;24.98;;;14.00;;
6910;SDS011;3495;52.346;9.832;2022-10-31T09:47:28;26.52;;;14.18;;
6910;SDS011;3495;52.346;9.832;2022-10-31T09:50:02;22.82;;;14.40;;
6910;SDS011;3495;52.346;9.832;2022-10-31T09:52:29;20.15;;;12.80;;
6910;SDS011;3495;52.346;9.832;2022-10-31T09:57:33;23.57;;;13.60;;
6910;SDS011;3495;52.346;9.832;2022-10-31T10:00:01;23.60;;;12.85;;
6910;SDS011;3495;52.346;9.832;2022-10-31T10:02:30;21.27;;;12.65;;
6910;SDS011;3495;52.346;9.832;2022-10-31T10:04:59;27.55;;;13.62;;
6910;SDS011;3495;52.346;9.832;2022-10-31T10:07:29;23.35;;;13.15;;
6910;SDS011;3495;52.346;9.832;2022-10-31T10:09:57;22.15;;;12.03;;
6910;SDS011;3495;52.346;9.832;2022-10-31T10:12:28;23.75;;;12.18;;
6910;SDS011;3495;52.346;9.832;2022-10-31T10:15:00;25.12;;;11.68;;
6910;SDS011;3495;52.346;9.832;2022-10-31T10:17:29;34.05;;;18.45;;
6910;SDS011;3495;52.346;9.832;2022-10-31T10:20:03;22.10;;;13.13;;
6910;SDS011;3495;52.346;9.832;2022-10-31T10:22:32;20.37;;;11.63;;
6910;SDS011;3495;52.346;9.832;2022-10-31T10:25:07;18.10;;;11.18;;
6910;SDS011;3495;52.346;9.832;2022-10-31T10:27:37;21.70;;;11.20;;
6910;SDS011;3495;52.346;9.832;2022-10-31T10:30:07;20.82;;;10.78;;
6910;SDS011;3495;52.346;9.832;2022-10-31T10:32:36;19.15;;;10.95;;
6910;SDS011;3495;52.346;9.832;2022-10-31T10:35:04;22.30;;;11.30;;
6910;SDS011;3495;52.346;9.832;2022-10-31T10:37:31;17.87;;;10.93;;
6910;SDS011;3495;52.346;9.832;2022-10-31T10:40:03;21.35;;;11.63;;
6910;SDS011;3495;52.346;9.832;2022-10-31T10:42:29;21.77;;;10.98;;
6910;SDS011;3495;52.346;9.832;2022-10-31T10:45:16;20.12;;;10.90;;
6910;SDS011;3495;52.346;9.832;2022-10-31T10:48:05;28.17;;;15.15;;
6910;SDS011;3495;52.346;9.832;2022-10-31T10:50:34;21.42;;;11.85;;
6910;SDS011;3495;52.346;9.832;2022-10-31T10:53:02;18.62;;;10.50;;
6910;SDS011;3495;52.346;9.832;2022-10-31T10:55:32;19.40;;;9.83;;
6910;SDS011;3495;52.346;9.832;2022-10-31T11:00:36;18.92;;;11.38;;
6910;SDS011;3495;52.346;9.832;2022-10-31T11:03:03;19.82;;;9.68;;
6910;SDS011;3495;52.346;9.832;2022-10-31T11:05:35;21.87;;;11.33;;
6910;SDS011;3495;52.346;9.832;2022-10-31T11:08:02;15.48;;;9.50;;
6910;SDS011;3495;52.346;9.832;2022-10-31T11:10:30;16.10;;;9.05;;
6910;SDS011;3495;52.346;9.832;2022-10-31T11:13:02;16.15;;;8.83;;
6910;SDS011;3495;52.346;9.832;2022-10-31T11:15:29;17.80;;;9.10;;
6910;SDS011;3495;52.346;9.832;2022-10-31T11:17:57;18.70;;;10.43;;
6910;SDS011;3495;52.346;9.832;2022-10-31T11:20:30;17.98;;;8.05;;
6910;SDS011;3495;52.346;9.832;2022-10-31T11:23:16;19.10;;;8.55;;
6910;SDS011;3495;52.346;9.832;2022-10-31T11:25:50;19.82;;;8.38;;
6910;SDS011;3495;52.346;9.832;2022-10-31T11:28:19;18.02;;;8.83;;
6910;SDS011;3495;52.346;9.832;2022-10-31T11:30:48;17.95;;;8.65;;
6910;SDS011;3495;52.346;9.832;2022-10-31T11:33:20;21.27;;;9.20;;
6910;SDS011;3495;52.346;9.832;2022-10-31T11:35:48;17.02;;;9.10;;
6910;SDS011;3495;52.346;9.832;2022-10-31T11:38:18;19.55;;;9.20;;
6910;SDS011;3495;52.346;9.832;2022-10-31T11:40:53;17.10;;;8.65;;
6910;SDS011;3495;52.346;9.832;2022-10-31T11:43:21;16.48;;;8.15;;
6910;SDS011;3495;52.346;9.832;2022-10-31T11:45:49;18.60;;;9.05;;
6910;SDS011;3495;52.346;9.832;2022-10-31T11:48:18;18.62;;;9.80;;
6910;SDS011;3495;52.346;9.832;2022-10-31T11:50:48;20.77;;;9.15;;
6910;SDS011;3495;52.346;9.832;2022-10-31T11:53:17;17.15;;;9.10;;
6910;SDS011;3495;52.346;9.832;2022-10-31T11:58:21;15.95;;;8.60;;
6910;SDS011;3495;52.346;9.832;2022-10-31T12:00:50;14.98;;;8.28;;
6910;SDS011;3495;52.346;9.832;2022-10-31T12:03:24;16.60;;;8.30;;
6910;SDS011;3495;52.346;9.832;2022-10-31T12:05:51;12.63;;;7.35;;
6910;SDS011;3495;52.346;9.832;2022-10-31T12:08:18;14.73;;;7.35;;
6910;SDS011;3495;52.346;9.832;2022-10-31T12:10:49;16.40;;;6.55;;
6910;SDS011;3495;52.346;9.832;2022-10-31T12:13:20;13.48;;;7.10;;
6910;SDS011;3495;52.346;9.832;2022-10-31T12:15:49;11.73;;;6.33;;
6910;SDS011;3495;52.346;9.832;2022-10-31T12:18:28;19.10;;;13.48;;
6910;SDS011;3495;52.346;9.832;2022-10-31T12:20:56;15.28;;;9.63;;
6910;SDS011;3495;52.346;9.832;2022-10-31T12:23:25;15.80;;;7.42;;
6910;SDS011;3495;52.346;9.832;2022-10-31T12:25:54;13.32;;;6.70;;
6910;SDS011;3495;52.346;9.832;2022-10-31T12:31:15;14.75;;;7.60;;
6910;SDS011;3495;52.346;9.832;2022-10-31T12:36:24;17.60;;;8.55;;
6910;SDS011;3495;52.346;9.832;2022-10-31T12:38:53;17.92;;;8.43;;
6910;SDS011;3495;52.346;9.832;2022-10-31T12:41:23;15.68;;;8.20;;
6910;SDS011;3495;52.346;9.832;2022-10-31T12:43:52;16.40;;;8.70;;
6910;SDS011;3495;52.346;9.832;2022-10-31T12:46:22;23.62;;;13.03;;
6910;SDS011;3495;52.346;9.832;2022-10-31T12:51:51;19.42;;;10.45;;
6910;SDS011;3495;52.346;9.832;2022-10-31T12:57:01;14.33;;;8.35;;
6910;SDS011;3495;52.346;9.832;2022-10-31T12:59:30;16.17;;;8.28;;
6910;SDS011;3495;52.346;9.832;2022-10-31T13:01:58;17.57;;;8.33;;
6910;SDS011;3495;52.346;9.832;2022-10-31T13:07:02;18.10;;;8.30;;
6910;SDS011;3495;52.346;9.832;2022-10-31T13:09:30;15.83;;;9.03;;
6910;SDS011;3495;52.346;9.832;2022-10-31T13:12:00;16.70;;;9.50;;
6910;SDS011;3495;52.346;9.832;2022-10-31T13:14:27;19.90;;;9.63;;
6910;SDS011;3495;52.346;9.832;2022-10-31T13:16:55;15.05;;;8.30;;
6910;SDS011;3495;52.346;9.832;2022-10-31T13:19:25;26.17;;;15.32;;
6910;SDS011;3495;52.346;9.832;2022-10-31T13:21:55;20.55;;;10.88;;
6910;SDS011;3495;52.346;9.832;2022-10-31T13:24:23;19.30;;;8.93;;
6910;SDS011;3495;52.346;9.832;2022-10-31T13:26:52;14.23;;;8.75;;
6910;SDS011;3495;52.346;9.832;2022-10-31T13:29:21;15.58;;;8.08;;
6910;SDS011;3495;52.346;9.832;2022-10-31T13:31:48;15.43;;;8.40;;
6910;SDS011;3495;52.346;9.832;2022-10-31T13:34:20;13.95;;;7.45;;
6910;SDS011;3495;52.346;9.832;2022-10-31T13:36:50;14.33;;;7.65;;
6910;SDS011;3495;52.346;9.832;2022-10-31T13:39:20;17.50;;;8.83;;
6910;SDS011;3495;52.346;9.832;2022-10-31T13:41:48;14.93;;;10.10;;
6910;SDS011;3495;52.346;9.832;2022-10-31T13:44:17;18.12;;;10.10;;
6910;SDS011;3495;52.346;9.832;2022-10-31T13:46:44;20.23;;;11.00;;
6910;SDS011;3495;52.346;9.832;2022-10-31T13:52:05;20.02;;;12.23;;
6910;SDS011;3495;52.346;9.832;2022-10-31T13:57:14;19.35;;;11.45;;
6910;SDS011;3495;52.346;9.832;2022-10-31T13:59:46;20.82;;;12.98;;
6910;SDS011;3495;52.346;9.832;2022-10-31T14:02:14;22.50;;;12.58;;
6910;SDS011;3495;52.346;9.832;2022-10-31T14:04:44;22.13;;;12.65;;
6910;SDS011;3495;52.346;9.832;2022-10-31T14:07:13;21.70;;;13.43;;
6910;SDS011;3495;52.346;9.832;2022-10-31T14:09:48;21.02;;;12.47;;
6910;SDS011;3495;52.346;9.832;2022-10-31T14:12:12;22.10;;;12.55;;
6910;SDS011;3495;52.346;9.832;2022-10-31T14:14:43;28.60;;;13.70;;
6910;SDS011;3495;52.346;9.832;2022-10-31T14:17:16;22.40;;;12.37;;
6910;SDS011;3495;52.346;9.832;2022-10-31T14:22:20;22.32;;;13.22;;
6910;SDS011;3495;52.346;9.832;2022-10-31T14:24:49;24.57;;;13.75;;
6910;SDS011;3495;52.346;9.832;2022-10-31T14:27:43;26.20;;;14.80;;
6910;SDS011;3495;52.346;9.832;2022-10-31T14:32:29;21.35;;;13.32;;
6910;SDS011;3495;52.346;9.832;2022-10-31T14:34:58;25.00;;;14.15;;
6910;SDS011;3495;52.346;9.832;2022-10-31T14:37:38;22.30;;;13.00;;
6910;SDS011;3495;52.346;9.832;2022-10-31T14:40:18;20.97;;;13.28;;
6910;SDS011;3495;52.346;9.832;2022-10-31T14:42:51;25.12;;;14.58;;
6910;SDS011;3495;52.346;9.832;2022-10-31T14:45:21;24.60;;;14.05;;
6910;SDS011;3495;52.346;9.832;2022-10-31T14:47:53;21.68;;;12.53;;
6910;SDS011;3495;52.346;9.832;2022-10-31T14:50:22;26.57;;;15.60;;
6910;SDS011;3495;52.346;9.832;2022-10-31T14:52:51;28.70;;;19.48;;
6910;SDS011;3495;52.346;9.832;2022-10-31T14:57:55;26.40;;;16.60;;
6910;SDS011;3495;52.346;9.832;2022-10-31T15:00:23;29.32;;;14.50;;
6910;SDS011;3495;52.346;9.832;2022-10-31T15:02:56;22.27;;;13.93;;
6910;SDS011;3495;52.346;9.832;2022-10-31T15:05:23;23.27;;;14.47;;
6910;SDS011;3495;52.346;9.832;2022-10-31T15:07:52;28.98;;;16.30;;
6910;SDS011;3495;52.346;9.832;2022-10-31T15:10:21;20.52;;;12.82;;
6910;SDS011;3495;52.346;9.832;2022-10-31T15:12:48;24.77;;;13.83;;
6910;SDS011;3495;52.346;9.832;2022-10-31T15:15:19;24.32;;;13.58;;
6910;SDS011;3495;52.346;9.832;2022-10-31T15:17:47;20.97;;;12.90;;
6910;SDS011;3495;52.346;9.832;2022-10-31T15:20:17;25.02;;;13.65;;
6910;SDS011;3495;52.346;9.832;2022-10-31T15:22:45;22.62;;;13.32;;
6910;SDS011;3495;52.346;9.832;2022-10-31T15:25:16;31.12;;;16.90;;
6910;SDS011;3495;52.346;9.832;2022-10-31T15:27:44;26.33;;;15.90;;
6910;SDS011;3495;52.346;9.832;2022-10-31T15:30:20;23.32;;;14.13;;
6910;SDS011;3495;52.346;9.832;2022-10-31T15:32:48;29.40;;;14.53;;
6910;SDS011;3495;52.346;9.832;2022-10-31T15:35:21;25.72;;;14.58;;
6910;SDS011;3495;52.346;9.832;2022-10-31T15:37:49;24.37;;;13.70;;
6910;SDS011;3495;52.346;9.832;2022-10-31T15:40:18;25.02;;;14.07;;
6910;SDS011;3495;52.346;9.832;2022-10-31T15:42:48;29.23;;;14.35;;
6910;SDS011;3495;52.346;9.832;2022-10-31T15:45:19;26.20;;;14.80;;
6910;SDS011;3495;52.346;9.832;2022-10-31T15:47:48;22.07;;;13.58;;
6910;SDS011;3495;52.346;9.832;2022-10-31T15:50:19;28.25;;;14.63;;
6910;SDS011;3495;52.346;9.832;2022-10-31T15:52:47;29.27;;;16.20;;
6910;SDS011;3495;52.346;9.832;2022-10-31T15:57:53;24.63;;;14.38;;
6910;SDS011;3495;52.346;9.832;2022-10-31T16:00:23;29.35;;;14.60;;
6910;SDS011;3495;52.346;9.832;2022-10-31T16:03:01;30.00;;;16.67;;
6910;SDS011;3495;52.346;9.832;2022-10-31T16:05:34;26.70;;;15.58;;
6910;SDS011;3495;52.346;9.832;2022-10-31T16:08:01;28.35;;;15.43;;
6910;SDS011;3495;52.346;9.832;2022-10-31T16:10:32;27.90;;;14.13;;
6910;SDS011;3495;52.346;9.832;2022-10-31T16:12:58;25.95;;;14.45;;
6910;SDS011;3495;52.346;9.832;2022-10-31T16:15:26;23.85;;;14.50;;
6910;SDS011;3495;52.346;9.832;2022-10-31T16:17:54;25.70;;;14.28;;
6910;SDS011;3495;52.346;9.832;2022-10-31T16:20:25;30.80;;;15.95;;
6910;SDS011;3495;52.346;9.832;2022-10-31T16:22:52;27.65;;;14.20;;
6910;SDS011;3495;52.346;9.832;2022-10-31T16:25:22;26.77;;;14.07;;